Airfield :
LOGIN :

Register | Disclaimer

   EN    FR    IT 

 










Legend :    VFR   Marginal VFR   IFR   Intensive IFR   Very Intensive IFR
Visi :
Ceiling :
>= 8 km
>= 3000ft
5 to 8 km
1000 to 3000 ft
1500m to 5 km
500 to 1000 ft
800 to 1500m
200 to 500 ft
< 800m
< 200 ft
Symbols :   Thunderstorms  Fog  Heavy snow  Heavy precipitations  Wind > 20 kt
SIGMETs :     Misc.  Thunderstorms  Icing  Turbulence  Mountain Waves  Volcanic Ashes







- Airport Elevation : 13 ft
- IATA code : CEQ
- Download approach charts


LFMD - Cannes Mandelieu

CURRENT METAR :
  • 290700Z AUTO 25015KT 200V280 CAVOK 22/12 Q1004 NOSIG

EXPIRED METARs :
  • 290630Z AUTO 25013KT 220V290 CAVOK 21/11 Q1003 NOSIG
  • 290600Z AUTO 25011KT CAVOK 21/11 Q1003 NOSIG
  • 290530Z AUTO 27010KT 230V320 CAVOK 21/10 Q1002 NOSIG
  • 290500Z AUTO 27011KT CAVOK 20/10 Q1002 NOSIG
  • 290430Z AUTO 25013KT CAVOK 19/10 Q1002 NOSIG

TAF TAF LFMD
Valid from the 29 at 03:00 until the 30 at 03:00 UTC


290200Z 2903/3003 26012KT CAVOK
TEMPO 2909/2919 26015G30KT
ATIS : +33 4 93 48 73 23
No reported NOTAMs for that airfield.
1 SIGMET reported for the Marseille FIR (LFMM) :
 
Severe turbulence
LFMM SIGMET 1 VALID 290530/290930 LFPW
LFMM MARSEILLE FIR/UIR SEV TURB FCST WI N4330 E00830 - N4315 E00945 - N4245 E00945 - N4230 E00830 SFC/FL050 STNR NC=



MET'MAP, your aeronautical weather chart ! - Copyright ORBIFLY December 2007 - Disclaimer

ORBIFLY MET'MAP TEAM :

Programming & Development : Alexandra Zaïnal
Concept & Development : Baudouin d'Aumeries
Co-Development & Prog : Marc-Olivier Méhu
Technical & hardware support : Manuel Goepfert

Contact : metmap@orbifly.com




SOURCES & CREDITS :

   NOAA